Time;durP1;ratioP1;P1;durP2;ratioP2;P2;SDS_P1;SDS_P2;PMS_P1;PMS_P2;Temp;Humidity;BMP_temperature;BMP_pressure;BME280_temperature;BME280_humidity;BME280_pressure;Samples;Min_cycle;Max_cycle;Signal;HPM_P1;HPM_P2
2021/11/22 00:00:16;;;;;;;21.70;11.77;;;;;;;3.88;69.30;92087.88;2047713;70;20230;-70
2021/11/22 00:02:46;;;;;;;21.30;11.18;;;;;;;3.97;69.02;92092.72;2047693;70;20503;-72
2021/11/22 00:05:11;;;;;;;20.60;11.40;;;;;;;3.84;69.77;92093.13;2047791;70;20134;-73
2021/11/22 00:07:37;;;;;;;17.25;10.80;;;;;;;3.87;69.54;92088.47;2047810;70;20138;-72
2021/11/22 00:10:04;;;;;;;17.58;10.70;;;;;;;3.92;70.10;92093.75;2047649;70;20253;-72
2021/11/22 00:12:33;;;;;;;20.95;11.23;;;;;;;3.74;70.84;92100.72;2047558;70;20138;-71
2021/11/22 00:14:59;;;;;;;19.98;10.70;;;;;;;3.95;69.39;92095.38;2047684;70;20150;-71
2021/11/22 00:17:24;;;;;;;16.95;10.23;;;;;;;3.96;69.49;92099.63;2047362;70;20193;-74
2021/11/22 00:19:50;;;;;;;17.88;9.48;;;;;;;4.01;69.19;92097.88;2047620;70;20238;-69
2021/11/22 00:22:15;;;;;;;19.20;9.32;;;;;;;3.91;69.32;92092.28;2047743;70;20170;-74
2021/11/22 00:24:41;;;;;;;19.45;10.20;;;;;;;3.74;70.02;92097.94;2047803;70;20154;-72
2021/11/22 00:27:07;;;;;;;18.33;10.70;;;;;;;3.36;70.84;92104.84;2047843;70;20184;-70
2021/11/22 00:29:33;;;;;;;17.58;10.40;;;;;;;3.35;71.50;92106.16;2047685;70;20600;-69
2021/11/22 00:32:25;;;;;;;16.35;9.93;;;;;;;3.56;70.54;92109.16;2044823;70;20265;-72
2021/11/22 00:35:14;;;;;;;18.02;10.68;;;;;;;3.64;70.40;92111.09;2047311;70;20177;-69
2021/11/22 00:37:45;;;;;;;17.65;10.48;;;;;;;3.59;71.03;92115.63;2047336;70;20565;-69
2021/11/22 00:40:13;;;;;;;17.80;9.77;;;;;;;3.73;70.15;92116.69;2047695;70;20153;-69
2021/11/22 00:42:39;;;;;;;17.23;9.95;;;;;;;3.75;69.93;92118.91;2047759;70;20142;-69
2021/11/22 00:45:06;;;;;;;17.88;10.10;;;;;;;3.67;70.53;92121.09;2047269;70;20158;-72
2021/11/22 00:47:33;;;;;;;18.38;10.18;;;;;;;3.78;69.84;92126.09;2047617;70;20149;-70
2021/11/22 00:49:59;;;;;;;14.73;9.32;;;;;;;3.86;69.24;92129.50;2047664;70;20150;-72
2021/11/22 00:52:25;;;;;;;13.63;8.82;;;;;;;3.84;69.17;92126.53;2047682;70;20147;-69
2021/11/22 00:54:51;;;;;;;14.70;9.35;;;;;;;3.83;69.50;92131.38;2047603;70;20586;-69
2021/11/22 00:57:16;;;;;;;17.67;10.00;;;;;;;3.62;70.73;92130.41;2047548;70;20145;-69
2021/11/22 00:59:42;;;;;;;15.90;9.57;;;;;;;3.76;68.86;92128.75;2047826;70;20175;-70
2021/11/22 01:02:08;;;;;;;17.58;9.55;;;;;;;3.70;70.29;92120.63;2044674;70;20152;-70
2021/11/22 01:04:36;;;;;;;18.52;10.52;;;;;;;3.75;70.03;92127.97;2041947;70;20182;-72
2021/11/22 01:07:03;;;;;;;16.88;10.05;;;;;;;3.73;70.04;92130.63;2043072;70;20142;-71
2021/11/22 01:09:29;;;;;;;17.42;9.43;;;;;;;3.75;69.51;92133.53;2044421;70;20496;-69
2021/11/22 01:11:55;;;;;;;21.73;9.85;;;;;;;3.74;69.57;92139.69;2043600;70;20154;-71
2021/11/22 01:14:24;;;;;;;16.30;9.73;;;;;;;3.74;69.52;92140.44;2043788;70;20238;-71
2021/11/22 01:16:51;;;;;;;17.67;9.82;;;;;;;3.74;69.64;92134.13;2042963;70;20159;-70
2021/11/22 01:19:19;;;;;;;19.48;9.98;;;;;;;3.76;69.49;92134.31;2044828;70;20157;-69
2021/11/22 01:21:48;;;;;;;13.90;9.10;;;;;;;3.73;69.42;92138.25;2043426;70;20159;-74
2021/11/22 01:24:14;;;;;;;16.00;9.48;;;;;;;3.75;69.43;92149.53;2044382;70;20555;-73
2021/11/22 01:26:39;;;;;;;18.85;9.85;;;;;;;3.73;69.46;92150.09;2041537;70;20238;-72
2021/11/22 01:29:06;;;;;;;15.90;9.30;;;;;;;3.74;70.19;92156.41;2043976;70;20176;-74
2021/11/22 01:31:31;;;;;;;17.40;9.30;;;;;;;3.81;68.44;92159.09;2043349;70;20171;-70
2021/11/22 01:33:57;;;;;;;14.88;9.48;;;;;;;3.72;69.83;92164.63;2043615;70;20538;-70
2021/11/22 01:36:23;;;;;;;16.17;10.02;;;;;;;3.72;69.66;92159.78;2044554;70;20194;-72
2021/11/22 01:38:49;;;;;;;16.33;9.40;;;;;;;3.68;70.52;92159.47;2044105;70;20600;-71
2021/11/22 01:41:15;;;;;;;18.83;9.50;;;;;;;3.52;70.86;92158.22;2044639;70;20159;-76
2021/11/22 01:43:40;;;;;;;16.73;9.98;;;;;;;3.44;71.21;92157.59;2044526;70;20150;-72
2021/11/22 01:46:06;;;;;;;16.52;9.65;;;;;;;3.52;71.12;92161.72;2044522;70;20590;-71
2021/11/22 01:48:33;;;;;;;17.42;10.13;;;;;;;3.63;70.11;92157.69;2044411;70;20159;-73
2021/11/22 01:50:58;;;;;;;16.00;9.48;;;;;;;3.57;70.98;92162.78;2044659;70;20179;-73
2021/11/22 01:53:24;;;;;;;13.98;8.63;;;;;;;3.73;70.33;92161.25;2044752;70;20350;-74
2021/11/22 01:55:51;;;;;;;15.00;8.93;;;;;;;3.74;70.04;92162.72;2044589;70;20147;-71
2021/11/22 01:58:17;;;;;;;15.45;9.48;;;;;;;3.74;70.15;92165.50;2044560;70;20147;-71
2021/11/22 02:00:52;;;;;;;15.88;9.02;;;;;;;3.85;68.60;92169.03;2044530;70;20239;-72
2021/11/22 02:03:19;;;;;;;16.50;9.38;;;;;;;3.72;70.30;92162.56;2044493;70;20166;-73
2021/11/22 02:05:46;;;;;;;16.45;9.15;;;;;;;3.77;69.93;92164.34;2044589;70;20226;-75
2021/11/22 02:08:13;;;;;;;16.45;9.68;;;;;;;3.76;70.15;92162.88;2044548;70;20205;-74
2021/11/22 02:10:39;;;;;;;16.05;9.27;;;;;;;3.81;69.50;92169.50;2044996;70;20596;-73
2021/11/22 02:13:05;;;;;;;17.75;9.63;;;;;;;3.82;69.34;92162.59;2044584;70;20202;-71
2021/11/22 02:15:31;;;;;;;18.88;9.35;;;;;;;3.77;69.43;92175.47;2045117;70;20154;-69
2021/11/22 02:17:58;;;;;;;14.48;8.15;;;;;;;3.72;70.02;92165.34;2044476;70;20171;-71
2021/11/22 02:20:28;;;;;;;14.95;9.18;;;;;;;3.64;69.67;92164.72;2045086;70;20139;-70
2021/11/22 02:22:59;;;;;;;21.60;12.48;;;;;;;3.21;72.03;92169.78;2045208;70;20178;-73
2021/11/22 02:25:27;;;;;;;19.80;10.52;;;;;;;3.46;71.17;92169.59;2045109;70;20590;-72
2021/11/22 02:27:52;;;;;;;17.50;9.52;;;;;;;3.67;69.81;92171.91;2045187;70;20191;-76
2021/11/22 02:30:21;;;;;;;18.38;9.73;;;;;;;3.58;70.82;92167.03;2045085;70;20234;-71
2021/11/22 02:32:47;;;;;;;16.70;9.27;;;;;;;3.62;70.67;92172.16;2044439;70;20154;-71
2021/11/22 02:35:19;;;;;;;19.23;9.75;;;;;;;3.66;70.41;92173.22;2044513;70;20202;-73
2021/11/22 02:37:45;;;;;;;17.10;10.00;;;;;;;3.63;70.30;92177.16;2045306;70;20155;-71
2021/11/22 02:40:11;;;;;;;18.45;9.82;;;;;;;3.69;69.91;92174.13;2044613;70;20642;-70
2021/11/22 02:42:46;;;;;;;19.38;10.32;;;;;;;3.13;72.97;92174.69;2045008;70;20177;-72
2021/11/22 02:45:17;;;;;;;18.10;9.82;;;;;;;3.42;71.80;92176.91;2045024;70;20520;-71
2021/11/22 02:47:44;;;;;;;20.85;10.57;;;;;;;3.44;71.29;92172.25;2044975;70;20222;-74
2021/11/22 02:50:11;;;;;;;23.95;11.00;;;;;;;3.51;70.94;92176.97;2045023;70;20135;-73
2021/11/22 02:52:38;;;;;;;19.70;10.55;;;;;;;3.61;70.70;92182.56;2045054;70;20147;-71
2021/11/22 02:55:06;;;;;;;16.20;10.18;;;;;;;3.61;69.94;92181.84;2045044;70;20157;-75
2021/11/22 02:57:32;;;;;;;18.10;10.50;;;;;;;3.58;70.66;92180.97;2045021;70;20144;-70
2021/11/22 02:59:57;;;;;;;19.38;9.75;;;;;;;3.31;71.89;92176.13;2045049;70;20161;-73
2021/11/22 03:02:23;;;;;;;16.63;9.77;;;;;;;3.48;70.90;92186.47;2044864;70;20243;-74
2021/11/22 03:04:48;;;;;;;15.57;9.57;;;;;;;3.49;70.96;92196.28;2044974;70;20613;-70
2021/11/22 03:07:14;;;;;;;16.63;9.93;;;;;;;3.50;71.18;92185.88;2044299;70;20629;-72
2021/11/22 03:09:40;;;;;;;15.73;9.35;;;;;;;3.49;71.00;92192.78;2044819;70;20159;-71
2021/11/22 03:12:10;;;;;;;18.50;10.30;;;;;;;3.21;72.44;92194.06;2045019;70;20219;-71
2021/11/22 03:14:36;;;;;;;17.73;9.75;;;;;;;3.35;72.28;92206.31;2045084;70;20146;-71
2021/11/22 03:17:03;;;;;;;17.92;10.00;;;;;;;3.42;71.41;92213.09;2045006;70;20155;-70
2021/11/22 03:19:29;;;;;;;17.00;10.10;;;;;;;3.31;71.15;92211.56;2044825;70;20151;-68
2021/11/22 03:21:55;;;;;;;19.15;10.45;;;;;;;3.08;72.58;92214.63;2045077;70;20162;-69
2021/11/22 03:24:21;;;;;;;20.92;10.90;;;;;;;3.33;72.37;92216.53;2044409;70;20523;-71
2021/11/22 03:26:47;;;;;;;21.20;10.77;;;;;;;3.49;71.21;92213.00;2045046;70;20614;-70
2021/11/22 03:29:13;;;;;;;16.45;9.75;;;;;;;3.50;71.41;92217.25;2044964;70;20143;-72
2021/11/22 03:31:40;;;;;;;17.50;10.40;;;;;;;3.58;71.07;92222.72;2044907;70;20159;-72
2021/11/22 03:34:09;;;;;;;18.45;10.52;;;;;;;3.52;71.24;92219.44;2044879;70;20543;-69
2021/11/22 03:36:35;;;;;;;18.95;10.38;;;;;;;3.61;70.68;92213.19;2044955;70;20202;-69
2021/11/22 03:39:09;;;;;;;19.35;11.27;;;;;;;3.59;70.50;92215.81;2044903;70;20519;-70
2021/11/22 03:41:34;;;;;;;19.83;10.77;;;;;;;3.44;72.60;92222.34;2044386;70;20187;-71
2021/11/22 03:44:10;;;;;;;19.95;10.65;;;;;;;3.46;71.71;92224.53;2044876;70;20147;-69
2021/11/22 03:46:38;;;;;;;17.23;10.40;;;;;;;3.46;71.79;92222.47;2044957;70;20622;-71
2021/11/22 03:49:04;;;;;;;19.20;10.43;;;;;;;3.58;71.18;92233.84;2044842;70;20159;-72
2021/11/22 03:51:30;;;;;;;20.23;11.10;;;;;;;3.43;72.39;92231.25;2044873;70;20596;-71
2021/11/22 03:53:55;;;;;;;20.27;11.18;;;;;;;3.50;71.90;92236.72;2044911;70;20150;-70
2021/11/22 03:56:21;;;;;;;18.35;11.30;;;;;;;3.55;71.68;92224.59;2044965;70;20147;-76
2021/11/22 03:58:47;;;;;;;20.42;11.45;;;;;;;3.61;71.70;92234.72;2044798;70;20202;-71
2021/11/22 04:01:13;;;;;;;19.48;11.15;;;;;;;3.59;72.04;92243.66;2044909;70;20155;-70
2021/11/22 04:03:39;;;;;;;21.20;11.05;;;;;;;3.62;71.65;92242.50;2044812;70;20219;-72
2021/11/22 04:06:06;;;;;;;18.70;11.05;;;;;;;3.60;71.39;92234.00;2044392;70;20159;-72
2021/11/22 04:08:33;;;;;;;18.50;10.52;;;;;;;3.64;70.95;92237.09;2044970;70;20246;-73
2021/11/22 04:10:58;;;;;;;18.75;10.63;;;;;;;3.71;70.84;92241.84;2044991;70;20146;-70
2021/11/22 04:13:24;;;;;;;22.20;11.35;;;;;;;3.69;71.32;92241.66;2044869;70;20151;-72
2021/11/22 04:15:50;;;;;;;20.08;11.65;;;;;;;3.53;73.00;92243.19;2044952;70;20150;-72
2021/11/22 04:18:15;;;;;;;19.98;10.73;;;;;;;3.69;71.42;92241.66;2044832;70;20249;-71
2021/11/22 04:20:41;;;;;;;19.23;11.20;;;;;;;3.79;70.61;92250.06;2044298;70;20145;-72
2021/11/22 04:23:07;;;;;;;20.33;11.32;;;;;;;3.68;71.50;92251.34;2044772;70;20530;-74
2021/11/22 04:25:34;;;;;;;23.73;13.45;;;;;;;3.68;71.69;92245.03;2044846;70;20151;-71
2021/11/22 04:28:00;;;;;;;22.13;12.02;;;;;;;3.52;73.10;92261.91;2044722;70;20147;-70
2021/11/22 04:30:26;;;;;;;21.63;11.70;;;;;;;3.20;74.58;92268.41;2044629;70;20575;-73
2021/11/22 04:32:52;;;;;;;19.38;11.65;;;;;;;3.59;72.88;92267.97;2044395;70;20246;-72
2021/11/22 04:35:19;;;;;;;19.35;12.15;;;;;;;3.69;72.49;92268.75;2044745;70;20238;-74
2021/11/22 04:37:44;;;;;;;22.85;12.00;;;;;;;3.70;72.65;92259.81;2044282;70;20146;-76
2021/11/22 04:40:14;;;;;;;22.10;12.98;;;;;;;3.76;72.41;92263.09;2041607;70;20151;-75
2021/11/22 04:42:40;;;;;;;22.13;11.88;;;;;;;3.86;71.11;92265.94;2044860;70;20170;-74
2021/11/22 04:45:06;;;;;;;20.65;11.80;;;;;;;3.80;71.63;92266.22;2045002;70;20179;-71
2021/11/22 04:47:34;;;;;;;21.70;12.75;;;;;;;3.68;72.17;92268.03;2044777;70;20143;-70
2021/11/22 04:50:00;;;;;;;23.55;12.60;;;;;;;3.76;72.37;92271.47;2044862;70;20147;-73
2021/11/22 04:52:26;;;;;;;20.73;12.43;;;;;;;3.70;71.17;92265.41;2044805;70;20243;-69
2021/11/22 04:54:51;;;;;;;21.42;12.95;;;;;;;3.77;71.00;92269.41;2044263;70;20145;-71
2021/11/22 04:57:17;;;;;;;36.45;24.95;;;;;;;3.59;71.88;92274.28;2044784;70;20177;-73
2021/11/22 04:59:44;;;;;;;25.20;14.32;;;;;;;3.54;73.26;92264.88;2044698;70;20190;-71
2021/11/22 05:02:11;;;;;;;20.80;13.68;;;;;;;3.52;73.59;92267.47;2044206;70;20739;-73
2021/11/22 05:04:37;;;;;;;22.73;13.35;;;;;;;3.52;73.20;92270.25;2044585;70;20159;-76
2021/11/22 05:07:13;;;;;;;24.20;13.30;;;;;;;3.71;71.82;92272.47;2044899;70;20243;-75
2021/11/22 05:09:39;;;;;;;23.08;13.88;;;;;;;3.60;72.96;92275.75;2044771;70;20135;-75
2021/11/22 05:12:05;;;;;;;27.58;15.90;;;;;;;3.76;72.74;92271.47;2044900;70;20316;-71
2021/11/22 05:14:31;;;;;;;31.60;17.27;;;;;;;3.71;72.73;92278.03;2044729;70;20139;-71
2021/11/22 05:16:56;;;;;;;27.90;15.48;;;;;;;3.71;73.07;92291.19;2044153;70;20219;-71
2021/11/22 05:19:24;;;;;;;28.92;16.50;;;;;;;3.83;71.43;92304.03;2044593;70;20214;-72
2021/11/22 05:21:50;;;;;;;28.73;15.20;;;;;;;3.84;71.98;92290.84;2044597;70;20595;-73
2021/11/22 05:24:15;;;;;;;25.90;15.57;;;;;;;3.57;72.90;92288.03;2044413;70;20228;-72
2021/11/22 05:26:41;;;;;;;28.40;15.60;;;;;;;3.49;74.33;92279.03;2044501;70;20155;-73
2021/11/22 05:29:11;;;;;;;25.17;14.98;;;;;;;3.55;74.32;92279.53;2044331;70;20512;-71
2021/11/22 05:31:53;;;;;;;26.83;14.70;;;;;;;3.78;73.25;92279.97;2044283;70;20146;-72
2021/11/22 05:34:19;;;;;;;24.73;15.63;;;;;;;3.79;73.36;92289.03;2044432;70;20221;-73
2021/11/22 05:36:46;;;;;;;25.55;15.88;;;;;;;3.80;73.04;92288.47;2043801;70;20165;-74
2021/11/22 05:39:12;;;;;;;31.70;17.15;;;;;;;3.80;73.80;92304.44;2044277;70;20139;-70
2021/11/22 05:41:38;;;;;;;39.55;18.42;;;;;;;3.72;74.26;92298.97;2044453;70;20157;-71
2021/11/22 05:44:04;;;;;;;26.83;16.45;;;;;;;3.86;72.29;92313.28;2044871;70;20147;-73
2021/11/22 05:46:29;;;;;;;26.80;16.58;;;;;;;3.79;72.36;92314.84;2045125;70;20139;-72
2021/11/22 05:48:55;;;;;;;30.33;17.13;;;;;;;3.70;73.54;92315.50;2045003;70;20516;-73
2021/11/22 05:51:25;;;;;;;26.92;16.67;;;;;;;3.79;72.85;92316.88;2044621;70;20139;-72
2021/11/22 05:53:51;;;;;;;28.42;16.63;;;;;;;3.82;73.04;92319.25;2045130;70;20279;-71
2021/11/22 05:56:18;;;;;;;30.58;16.00;;;;;;;3.91;72.30;92322.69;2041907;70;20615;-72
2021/11/22 05:58:45;;;;;;;27.05;16.70;;;;;;;3.84;73.48;92327.03;2045023;70;20141;-72
2021/11/22 06:01:10;;;;;;;27.95;16.70;;;;;;;3.90;73.27;92321.22;2045111;70;20155;-70
2021/11/22 06:03:36;;;;;;;27.55;16.13;;;;;;;3.89;73.09;92328.09;2044990;70;20162;-73
2021/11/22 06:06:02;;;;;;;26.58;16.75;;;;;;;3.98;72.97;92333.72;2045215;70;20147;-73
2021/11/22 06:08:28;;;;;;;28.92;17.48;;;;;;;3.98;72.76;92339.28;2044539;70;20683;-71
2021/11/22 06:10:53;;;;;;;29.10;16.42;;;;;;;4.10;72.40;92341.56;2045093;70;20147;-74
2021/11/22 06:13:20;;;;;;;31.67;18.65;;;;;;;4.12;72.03;92350.06;2045091;70;20163;-73
2021/11/22 06:15:47;;;;;;;35.45;21.38;;;;;;;4.01;73.43;92342.97;2045092;70;20163;-72
2021/11/22 06:18:14;;;;;;;31.73;18.52;;;;;;;4.08;73.15;92344.94;2044984;70;20153;-73
2021/11/22 06:20:41;;;;;;;33.58;18.42;;;;;;;3.87;74.15;92350.94;2045068;70;20143;-70
2021/11/22 06:23:07;;;;;;;50.20;28.08;;;;;;;3.83;74.27;92361.75;2045170;70;20155;-73
2021/11/22 06:25:33;;;;;;;35.60;20.67;;;;;;;3.87;73.64;92355.78;2044506;70;20165;-74
2021/11/22 06:27:59;;;;;;;34.85;19.08;;;;;;;3.95;73.90;92359.22;2045167;70;20149;-71
2021/11/22 06:30:25;;;;;;;30.08;18.13;;;;;;;3.85;74.02;92358.38;2045082;70;20151;-75
2021/11/22 06:32:52;;;;;;;30.70;17.77;;;;;;;3.85;74.51;92370.28;2044949;70;20143;-71
2021/11/22 06:35:21;;;;;;;29.05;16.52;;;;;;;4.03;73.27;92370.97;2045018;70;20666;-74
2021/11/22 06:37:47;;;;;;;27.40;16.25;;;;;;;4.03;73.39;92373.75;2045040;70;20147;-71
2021/11/22 06:40:13;;;;;;;27.75;17.13;;;;;;;4.06;73.16;92373.34;2045167;70;20150;-74
2021/11/22 06:42:39;;;;;;;30.08;17.25;;;;;;;3.99;73.05;92377.00;2045011;70;20151;-71
2021/11/22 06:45:06;;;;;;;31.58;17.48;;;;;;;4.00;72.27;92381.22;2044504;70;20166;-75
2021/11/22 06:47:33;;;;;;;31.73;19.48;;;;;;;3.98;73.64;92378.28;2044822;70;20233;-73
2021/11/22 06:49:58;;;;;;;35.65;19.05;;;;;;;4.03;73.62;92382.88;2045027;70;20161;-74
2021/11/22 06:52:24;;;;;;;34.15;18.58;;;;;;;4.11;72.65;92379.97;2044996;70;20147;-69
2021/11/22 06:54:52;;;;;;;34.92;18.98;;;;;;;4.19;72.23;92371.53;2044968;70;20575;-74
2021/11/22 06:57:18;;;;;;;34.45;18.95;;;;;;;4.17;72.60;92374.91;2045110;70;20151;-76
2021/11/22 06:59:44;;;;;;;33.70;19.42;;;;;;;4.20;73.30;92373.00;2044990;70;20292;-76
2021/11/22 07:02:15;;;;;;;39.50;20.92;;;;;;;4.02;74.30;92373.03;2045086;70;20607;-70
2021/11/22 07:04:42;;;;;;;40.22;21.40;;;;;;;4.01;75.13;92376.41;2044838;70;20604;-73
2021/11/22 07:07:08;;;;;;;38.30;21.08;;;;;;;3.90;75.36;92366.50;2045188;70;20178;-70
2021/11/22 07:09:34;;;;;;;40.05;22.20;;;;;;;3.95;75.45;92370.34;2044949;70;20262;-70
2021/11/22 07:12:00;;;;;;;44.50;25.10;;;;;;;4.06;74.29;92367.03;2045020;70;20210;-75
2021/11/22 07:14:26;;;;;;;49.10;28.48;;;;;;;4.15;74.61;92369.16;2044960;70;20186;-74
2021/11/22 07:16:53;;;;;;;38.53;21.67;;;;;;;4.13;73.10;92382.22;2045069;70;20155;-75
2021/11/22 07:19:20;;;;;;;35.65;19.33;;;;;;;4.15;72.86;92385.13;2044821;70;20508;-74
2021/11/22 07:21:46;;;;;;;35.15;20.30;;;;;;;4.19;73.81;92391.75;2044919;70;20165;-74
2021/11/22 07:24:12;;;;;;;37.53;20.00;;;;;;;4.03;74.19;92396.81;2044372;70;20147;-76
2021/11/22 07:26:38;;;;;;;35.15;20.50;;;;;;;4.12;73.57;92408.56;2044931;70;20500;-71
2021/11/22 07:29:05;;;;;;;38.67;22.50;;;;;;;4.13;74.53;92407.28;2044383;70;20476;-74
2021/11/22 07:31:30;;;;;;;43.13;23.17;;;;;;;4.20;74.02;92423.88;2044911;70;20222;-70
2021/11/22 07:33:56;;;;;;;40.40;22.35;;;;;;;4.26;74.44;92429.97;2044914;70;20150;-72
2021/11/22 07:36:22;;;;;;;43.58;23.08;;;;;;;4.34;73.91;92441.72;2044906;70;20159;-71
2021/11/22 07:38:47;;;;;;;49.15;24.23;;;;;;;4.29;73.54;92444.78;2044924;70;20167;-71
2021/11/22 07:41:14;;;;;;;41.22;22.10;;;;;;;4.35;72.65;92453.59;2044946;70;20571;-73
2021/11/22 07:43:39;;;;;;;46.53;23.25;;;;;;;4.39;72.66;92448.34;2044851;70;20154;-73
2021/11/22 07:46:05;;;;;;;46.10;24.83;;;;;;;4.38;73.78;92451.72;2044899;70;20546;-75
2021/11/22 07:48:32;;;;;;;52.33;29.33;;;;;;;4.32;73.51;92455.50;2044838;70;20175;-73
2021/11/22 07:50:58;;;;;;;47.97;25.27;;;;;;;4.18;74.45;92448.06;2044856;70;20158;-70
2021/11/22 07:53:24;;;;;;;51.22;26.40;;;;;;;4.04;76.04;92456.78;2044344;70;20178;-73
2021/11/22 07:55:50;;;;;;;49.35;25.90;;;;;;;4.08;75.61;92451.53;2044836;70;20198;-70
2021/11/22 07:58:15;;;;;;;51.35;25.90;;;;;;;4.15;75.88;92446.44;2044833;70;20155;-72
2021/11/22 08:00:41;;;;;;;51.28;27.42;;;;;;;4.28;75.21;92448.88;2044851;70;20158;-74
2021/11/22 08:03:07;;;;;;;50.60;26.10;;;;;;;4.33;74.65;92454.19;2044719;70;20139;-72
2021/11/22 08:05:33;;;;;;;48.00;25.42;;;;;;;4.33;75.22;92459.75;2044845;70;20511;-75
2021/11/22 08:07:59;;;;;;;51.30;26.63;;;;;;;4.44;73.59;92464.06;2044658;70;20604;-75
2021/11/22 08:10:30;;;;;;;53.13;26.52;;;;;;;4.54;73.30;92461.38;2044764;70;20135;-72
2021/11/22 08:12:59;;;;;;;49.75;26.85;;;;;;;4.52;74.17;92470.28;2044829;70;20150;-75
2021/11/22 08:15:27;;;;;;;52.17;26.75;;;;;;;4.44;75.34;92471.69;2044821;70;20308;-76
2021/11/22 08:17:53;;;;;;;49.22;25.38;;;;;;;4.57;74.75;92479.72;2044174;70;20250;-75
2021/11/22 08:20:21;;;;;;;60.22;30.02;;;;;;;4.50;75.26;92483.34;2044318;70;20159;-73
2021/11/22 08:22:48;;;;;;;60.25;32.10;;;;;;;4.08;76.94;92498.16;2044786;70;20154;-72
2021/11/22 08:25:16;;;;;;;60.17;33.80;;;;;;;3.97;78.36;92496.56;2044845;70;20163;-74
2021/11/22 08:27:42;;;;;;;51.28;26.63;;;;;;;4.00;77.76;92494.72;2044807;70;20549;-74
2021/11/22 08:30:12;;;;;;;47.75;25.52;;;;;;;4.34;75.69;92505.81;2044810;70;20149;-70
2021/11/22 08:32:39;;;;;;;61.17;29.40;;;;;;;4.48;75.15;92505.47;2044672;70;20175;-71
2021/11/22 08:35:06;;;;;;;56.10;29.60;;;;;;;4.53;75.18;92504.47;2044271;70;20208;-73
2021/11/22 08:37:33;;;;;;;56.17;29.60;;;;;;;4.52;75.24;92508.59;2044908;70;20600;-73
2021/11/22 08:39:58;;;;;;;52.65;26.65;;;;;;;4.20;76.37;92515.09;2044296;70;20246;-70
2021/11/22 08:42:25;;;;;;;51.97;27.02;;;;;;;4.31;76.34;92518.13;2044753;70;20150;-70
2021/11/22 08:44:52;;;;;;;56.15;26.98;;;;;;;4.50;75.26;92520.31;2044738;70;20164;-71
2021/11/22 08:47:17;;;;;;;54.58;25.85;;;;;;;4.62;74.79;92528.16;2044673;70;20155;-72
2021/11/22 08:49:43;;;;;;;52.50;27.50;;;;;;;4.63;74.34;92538.75;2044886;70;20178;-75
2021/11/22 08:52:10;;;;;;;59.10;32.20;;;;;;;4.34;76.08;92538.53;2044755;70;20147;-70
2021/11/22 08:54:36;;;;;;;54.30;28.10;;;;;;;4.50;74.83;92539.09;2044183;70;20181;-73
2021/11/22 08:57:03;;;;;;;56.88;29.35;;;;;;;4.41;76.19;92537.72;2044152;70;20135;-73
2021/11/22 08:59:29;;;;;;;53.58;29.08;;;;;;;4.55;76.02;92529.75;2044766;70;20159;-72
2021/11/22 09:01:54;;;;;;;57.47;30.00;;;;;;;4.50;76.21;92541.91;2044756;70;20142;-71
2021/11/22 09:04:23;;;;;;;55.78;29.80;;;;;;;4.64;75.48;92536.72;2044570;70;20158;-70
2021/11/22 09:06:49;;;;;;;52.95;28.17;;;;;;;4.71;73.44;92539.38;2044733;70;20246;-70
2021/11/22 09:09:15;;;;;;;58.13;30.00;;;;;;;4.61;75.78;92549.75;2044827;70;20183;-71
2021/11/22 09:11:40;;;;;;;54.08;28.75;;;;;;;4.57;76.38;92543.84;2044723;70;20512;-72
2021/11/22 09:14:06;;;;;;;52.85;28.48;;;;;;;4.61;76.34;92552.53;2044798;70;20583;-70
2021/11/22 09:16:32;;;;;;;51.13;25.17;;;;;;;4.40;77.50;92557.78;2044724;70;20226;-70
2021/11/22 09:19:00;;;;;;;52.47;26.90;;;;;;;4.35;77.55;92553.94;2044915;70;20154;-70
2021/11/22 09:21:29;;;;;;;59.75;30.75;;;;;;;4.49;76.30;92557.13;2045180;70;20229;-70
2021/11/22 09:23:55;;;;;;;50.15;27.08;;;;;;;4.56;75.44;92550.72;2044622;70;20155;-71
2021/11/22 09:26:21;;;;;;;51.60;25.60;;;;;;;4.37;76.67;92556.16;2045182;70;20146;-71
2021/11/22 09:28:47;;;;;;;53.30;27.73;;;;;;;4.36;77.03;92543.53;2045114;70;20154;-70
2021/11/22 09:31:14;;;;;;;54.72;27.25;;;;;;;4.38;77.57;92554.84;2045143;70;20600;-69
2021/11/22 09:33:40;;;;;;;52.55;28.02;;;;;;;4.47;76.14;92548.59;2045049;70;20162;-71
2021/11/22 09:36:06;;;;;;;50.03;25.17;;;;;;;4.46;75.63;92555.50;2045154;70;20178;-69
2021/11/22 09:38:31;;;;;;;48.95;25.48;;;;;;;4.52;75.73;92556.72;2045251;70;20519;-69
2021/11/22 09:40:57;;;;;;;54.10;25.65;;;;;;;4.55;76.67;92563.94;2045253;70;20512;-69
2021/11/22 09:43:24;;;;;;;53.05;26.65;;;;;;;4.70;75.96;92571.38;2045122;70;20159;-69
2021/11/22 09:45:50;;;;;;;46.58;25.20;;;;;;;4.76;76.29;92571.84;2045148;70;20150;-68
2021/11/22 09:48:16;;;;;;;50.53;24.58;;;;;;;4.79;74.56;92573.50;2044987;70;20222;-72
2021/11/22 09:50:43;;;;;;;47.00;24.55;;;;;;;4.87;73.95;92575.47;2045097;70;20155;-70
2021/11/22 09:53:08;;;;;;;49.63;25.05;;;;;;;4.89;74.73;92576.34;2045091;70;20217;-73
2021/11/22 09:55:35;;;;;;;49.75;25.40;;;;;;;4.91;74.73;92584.16;2045195;70;20591;-69
2021/11/22 09:58:04;;;;;;;49.58;24.73;;;;;;;4.74;75.30;92577.28;2045080;70;20230;-69
2021/11/22 10:00:38;;;;;;;52.47;26.63;;;;;;;4.70;75.76;92582.53;2045024;70;20341;-68
2021/11/22 10:03:13;;;;;;;55.10;28.33;;;;;;;4.58;77.57;92581.56;2044993;70;20147;-68
2021/11/22 10:05:42;;;;;;;55.67;26.67;;;;;;;4.43;78.62;92578.94;2044756;70;20237;-72
2021/11/22 10:08:14;;;;;;;50.78;26.05;;;;;;;4.59;77.66;92583.78;2045114;70;20270;-70
2021/11/22 10:10:51;;;;;;;52.10;27.42;;;;;;;4.61;77.78;92586.00;2045209;70;20170;-69
2021/11/22 10:13:34;;;;;;;58.50;29.73;;;;;;;4.72;77.16;92579.16;2045467;70;20139;-69
2021/11/22 10:16:12;;;;;;;61.13;31.17;;;;;;;4.74;76.19;92585.66;2044822;70;20151;-70
2021/11/22 10:18:41;;;;;;;54.83;27.58;;;;;;;4.59;77.83;92583.78;2045031;70;20595;-69
2021/11/22 10:21:10;;;;;;;55.00;26.55;;;;;;;4.71;77.06;92584.00;2045113;70;20159;-70
2021/11/22 10:23:38;;;;;;;53.47;26.88;;;;;;;4.82;76.39;92588.34;2045028;70;20179;-70
2021/11/22 10:26:05;;;;;;;51.15;24.98;;;;;;;4.91;75.50;92584.16;2044524;70;20189;-70
2021/11/22 10:28:36;;;;;;;48.42;24.58;;;;;;;4.84;75.87;92580.88;2044625;70;20535;-71
2021/11/22 10:31:06;;;;;;;52.25;25.38;;;;;;;4.96;75.66;92583.91;2044339;70;20177;-69
2021/11/22 10:33:34;;;;;;;49.22;25.40;;;;;;;4.96;76.19;92581.09;2044997;70;20155;-69
2021/11/22 10:36:03;;;;;;;55.28;26.77;;;;;;;4.83;76.24;92584.25;2044503;70;20143;-70
2021/11/22 10:38:35;;;;;;;49.72;25.77;;;;;;;4.83;76.18;92584.97;2045045;70;20159;-69
2021/11/22 10:41:05;;;;;;;45.30;23.90;;;;;;;4.99;75.58;92584.78;2045012;70;20140;-69
2021/11/22 10:43:49;;;;;;;47.05;23.67;;;;;;;5.01;74.50;92585.69;2044442;70;20646;-77
2021/11/22 10:46:15;;;;;;;48.72;24.08;;;;;;;4.67;77.25;92572.53;2045033;70;20690;-72
2021/11/22 10:48:47;;;;;;;51.88;25.75;;;;;;;4.70;77.58;92576.97;2044889;70;20234;-74
2021/11/22 10:51:15;;;;;;;50.20;24.90;;;;;;;4.75;76.80;92575.22;2044943;70;20162;-70
2021/11/22 10:53:58;;;;;;;44.42;23.85;;;;;;;4.85;76.40;92579.56;2045009;70;20167;-69
2021/11/22 10:56:28;;;;;;;46.38;23.42;;;;;;;5.03;75.59;92583.03;2045007;70;20169;-69
2021/11/22 10:59:07;;;;;;;46.60;23.75;;;;;;;5.05;75.90;92574.84;2044997;70;20516;-69
2021/11/22 11:01:35;;;;;;;47.50;23.27;;;;;;;4.98;76.65;92583.31;2045008;70;20223;-71
2021/11/22 11:04:24;;;;;;;49.00;24.58;;;;;;;4.70;76.96;92579.00;2044359;70;20147;-70
2021/11/22 11:07:08;;;;;;;47.47;24.23;;;;;;;4.68;78.12;92592.81;2045019;70;20134;-70
2021/11/22 11:09:38;;;;;;;51.53;25.00;;;;;;;4.68;77.66;92587.97;2045062;70;20139;-71
2021/11/22 11:12:06;;;;;;;51.47;24.92;;;;;;;4.85;76.89;92587.19;2044979;70;20592;-70
2021/11/22 11:14:34;;;;;;;49.00;25.08;;;;;;;4.77;76.33;92587.28;2044916;70;20142;-70
2021/11/22 11:17:12;;;;;;;51.90;24.90;;;;;;;4.58;78.06;92587.88;2044281;70;20159;-72
2021/11/22 11:19:39;;;;;;;49.30;24.33;;;;;;;4.86;76.31;92580.31;2045966;70;20527;-74
2021/11/22 11:22:05;;;;;;;47.30;24.83;;;;;;;4.89;76.80;92587.50;2047780;70;20160;-68
2021/11/22 11:24:32;;;;;;;49.50;23.98;;;;;;;4.95;76.71;92587.25;2047783;70;20515;-71
2021/11/22 11:27:01;;;;;;;46.45;23.10;;;;;;;5.09;75.07;92582.81;2048240;70;20221;-70